createdAt,value
2023-02-02T00:00:24.928Z,6.81
2023-02-02T00:01:25.393Z,6.81
2023-02-02T00:02:26.399Z,6.81
2023-02-02T00:03:27.322Z,6.81
2023-02-02T00:04:27.434Z,6.81
2023-02-02T00:05:28.412Z,6.81
2023-02-02T00:06:28.776Z,6.81
2023-02-02T00:07:29.546Z,6.80
2023-02-02T00:08:29.813Z,6.80
2023-02-02T00:09:29.883Z,6.80
2023-02-02T00:10:29.919Z,6.80
2023-02-02T00:11:30.828Z,6.79
2023-02-02T00:12:31.163Z,6.79
2023-02-02T00:13:31.719Z,6.79
2023-02-02T00:14:32.588Z,6.79
2023-02-02T00:15:33.225Z,6.79
2023-02-02T00:16:33.476Z,6.79
2023-02-02T00:17:33.867Z,6.80
2023-02-02T00:18:34.741Z,6.80
2023-02-02T00:19:34.978Z,6.80
2023-02-02T00:20:35.344Z,6.80
2023-02-02T00:21:35.728Z,6.80
2023-02-02T00:22:36.688Z,6.80
2023-02-02T00:23:37.533Z,6.80
2023-02-02T00:24:37.975Z,6.80
2023-02-02T00:25:38.039Z,6.80
2023-02-02T00:26:38.990Z,6.80
2023-02-02T00:27:39.674Z,6.80
2023-02-02T00:28:40.633Z,6.80
2023-02-02T00:29:40.848Z,6.80
2023-02-02T00:30:41.071Z,6.80
2023-02-02T00:30:49.822Z,6.80
2023-02-02T00:31:50.021Z,6.80
2023-02-02T00:32:49.977Z,6.80
2023-02-02T00:33:50.196Z,6.80
2023-02-02T00:34:50.268Z,6.79
2023-02-02T00:35:51.194Z,6.79
2023-02-02T00:36:52.164Z,6.79
2023-02-02T00:37:53.113Z,6.79
2023-02-02T00:38:53.312Z,6.79
2023-02-02T00:39:53.364Z,6.79
2023-02-02T00:40:54.179Z,6.78
2023-02-02T00:41:55.104Z,6.78
2023-02-02T00:42:55.361Z,6.77
2023-02-02T00:43:55.492Z,6.77
2023-02-02T00:44:56.861Z,6.76
2023-02-02T00:45:56.094Z,6.76
2023-02-02T00:46:56.328Z,6.75
2023-02-02T00:47:56.447Z,6.75
2023-02-02T00:48:56.601Z,6.75
2023-02-02T00:49:56.620Z,6.75
2023-02-02T00:50:57.029Z,6.74
2023-02-02T00:51:57.692Z,6.74
2023-02-02T00:52:58.251Z,6.74
2023-02-02T00:53:59.150Z,6.73
2023-02-02T00:54:59.273Z,6.73
2023-02-02T00:55:59.410Z,6.73
2023-02-02T00:57:00.285Z,6.73
2023-02-02T00:58:01.129Z,6.73
2023-02-02T00:59:01.799Z,6.73
2023-02-02T01:00:02.710Z,6.73
2023-02-02T01:01:03.554Z,6.73
2023-02-02T01:02:03.554Z,6.72
2023-02-02T01:03:03.605Z,6.72
2023-02-02T01:04:04.560Z,6.72
2023-02-02T01:05:04.893Z,6.71
2023-02-02T01:05:14.580Z,6.72
2023-02-02T01:06:14.703Z,6.72
2023-02-02T01:07:15.614Z,6.71
2023-02-02T01:08:16.654Z,6.71
2023-02-02T01:09:17.327Z,6.71
2023-02-02T01:10:18.268Z,6.70
2023-02-02T01:11:19.122Z,6.70
2023-02-02T01:12:19.922Z,6.70
2023-02-02T01:13:20.819Z,6.70
2023-02-02T01:14:21.134Z,6.70
2023-02-02T01:15:23.036Z,6.69
2023-02-02T01:16:22.700Z,6.69
2023-02-02T01:17:22.927Z,6.69
2023-02-02T01:18:23.797Z,6.69
2023-02-02T01:19:24.589Z,6.69
2023-02-02T01:20:25.168Z,6.70
2023-02-02T01:21:26.091Z,6.70
2023-02-02T01:22:26.171Z,6.70
2023-02-02T01:23:26.644Z,6.70
2023-02-02T01:24:27.504Z,6.70
2023-02-02T01:25:28.233Z,6.70
2023-02-02T01:26:28.272Z,6.70
2023-02-02T01:27:29.133Z,6.71
2023-02-02T01:28:29.961Z,6.71
2023-02-02T01:29:30.044Z,6.71
2023-02-02T01:30:30.910Z,6.72
2023-02-02T01:31:31.903Z,6.72
2023-02-02T01:32:31.966Z,6.73
2023-02-02T01:33:32.956Z,6.73
2023-02-02T01:34:33.685Z,6.74
2023-02-02T01:35:34.149Z,6.75
2023-02-02T01:36:34.640Z,6.75
2023-02-02T01:37:35.568Z,6.76
2023-02-02T01:38:36.543Z,6.76
2023-02-02T01:38:45.238Z,6.85
2023-02-02T01:39:45.882Z,6.85
2023-02-02T01:40:46.651Z,6.85
2023-02-02T01:41:46.715Z,6.85
2023-02-02T01:42:46.803Z,6.86
2023-02-02T01:43:47.821Z,6.86
2023-02-02T01:44:47.782Z,6.87
2023-02-02T01:45:48.577Z,6.87
2023-02-02T01:46:49.433Z,6.88
2023-02-02T01:47:49.741Z,6.88
2023-02-02T01:48:50.620Z,6.88
2023-02-02T01:49:50.837Z,6.89
2023-02-02T01:50:51.097Z,6.89
2023-02-02T01:51:51.246Z,6.90
2023-02-02T01:52:51.700Z,6.90
2023-02-02T01:53:52.199Z,6.91
2023-02-02T01:54:52.763Z,6.91
2023-02-02T01:55:53.692Z,6.91
2023-02-02T01:56:54.082Z,6.91
2023-02-02T01:57:54.168Z,6.92
2023-02-02T01:58:54.546Z,6.92
2023-02-02T01:59:54.640Z,6.92
2023-02-02T02:00:55.286Z,6.92
2023-02-02T02:01:55.954Z,6.93
2023-02-02T02:02:56.392Z,6.93
2023-02-02T02:03:56.538Z,6.93
2023-02-02T02:04:56.520Z,6.94
2023-02-02T02:05:56.590Z,6.94
2023-02-02T02:06:56.638Z,6.95
2023-02-02T02:07:57.501Z,6.95
2023-02-02T02:08:57.847Z,6.96
2023-02-02T02:09:58.355Z,6.96
2023-02-02T02:10:58.877Z,6.96
2023-02-02T02:11:59.789Z,6.97
2023-02-02T02:12:59.803Z,6.97
2023-02-02T02:13:08.492Z,6.99
2023-02-02T02:14:09.158Z,6.99
2023-02-02T02:15:09.998Z,6.99
2023-02-02T02:16:10.951Z,6.99
2023-02-02T02:17:11.635Z,6.99
2023-02-02T02:18:46.048Z,7.07
2023-02-02T02:19:45.816Z,7.06
2023-02-02T02:20:46.251Z,7.06
2023-02-02T02:21:47.069Z,7.06
2023-02-02T02:22:47.833Z,7.06
2023-02-02T02:23:48.781Z,7.06
2023-02-02T02:24:49.590Z,7.05
2023-02-02T02:25:49.914Z,7.05
2023-02-02T02:26:50.072Z,7.04
2023-02-02T02:27:50.645Z,7.04
2023-02-02T02:28:50.995Z,7.03
2023-02-02T02:29:51.928Z,7.03
2023-02-02T02:30:52.987Z,7.02
2023-02-02T02:31:53.931Z,7.01
2023-02-02T02:32:54.246Z,7.00
2023-02-02T02:33:54.989Z,6.99
2023-02-02T02:34:55.774Z,6.97
2023-02-02T02:35:56.567Z,6.96
2023-02-02T02:36:56.868Z,6.95
2023-02-02T02:37:57.722Z,6.93
2023-02-02T02:38:57.903Z,6.92
2023-02-02T02:39:58.725Z,6.91
2023-02-02T02:40:59.079Z,6.90
2023-02-02T02:42:00.046Z,6.89
2023-02-02T02:43:00.185Z,6.88
2023-02-02T02:44:00.282Z,6.87
2023-02-02T02:45:01.192Z,6.86
2023-02-02T02:46:02.049Z,6.85
2023-02-02T02:47:02.452Z,6.85
2023-02-02T02:48:02.664Z,6.84
2023-02-02T02:49:03.336Z,6.84
2023-02-02T02:50:05.070Z,6.84
2023-02-02T02:51:05.319Z,6.83
2023-02-02T02:52:04.995Z,6.83
2023-02-02T02:52:14.105Z,6.79
2023-02-02T02:53:14.760Z,6.79
2023-02-02T02:54:15.754Z,6.79
2023-02-02T02:55:16.029Z,6.79
2023-02-02T02:56:16.931Z,6.79
2023-02-02T02:57:17.353Z,6.79
2023-02-02T02:58:17.797Z,6.79
2023-02-02T02:59:18.779Z,6.79
2023-02-02T03:00:19.671Z,6.78
2023-02-02T03:01:19.993Z,6.78
2023-02-02T03:02:20.156Z,6.78
2023-02-02T03:03:21.000Z,6.78
2023-02-02T03:04:21.822Z,6.79
2023-02-02T03:05:23.094Z,6.79
2023-02-02T03:06:22.937Z,6.79
2023-02-02T03:07:23.029Z,6.79
2023-02-02T03:08:23.735Z,6.79
2023-02-02T03:09:23.935Z,6.78
2023-02-02T03:10:24.241Z,6.78
2023-02-02T03:11:24.543Z,6.78
2023-02-02T03:12:25.478Z,6.77
2023-02-02T03:13:26.138Z,6.77
2023-02-02T03:14:26.231Z,6.76
2023-02-02T03:15:27.311Z,6.76
2023-02-02T03:16:28.083Z,6.76
2023-02-02T03:17:29.048Z,6.75
2023-02-02T03:18:29.090Z,6.74
2023-02-02T03:19:29.247Z,6.74
2023-02-02T03:20:29.569Z,6.73
2023-02-02T03:21:30.302Z,6.73
2023-02-02T03:22:31.108Z,6.72
2023-02-02T03:23:31.883Z,6.71
2023-02-02T03:24:32.293Z,6.71
2023-02-02T03:25:32.498Z,6.70
2023-02-02T03:26:33.476Z,6.69
2023-02-02T03:27:33.909Z,6.69
2023-02-02T03:27:42.924Z,6.61
2023-02-02T03:28:43.816Z,6.61
2023-02-02T03:29:44.054Z,6.60
2023-02-02T03:30:44.269Z,6.60
2023-02-02T03:31:45.230Z,6.60
2023-02-02T03:32:45.190Z,6.60
2023-02-02T03:33:45.253Z,6.60
2023-02-02T03:34:45.596Z,6.60
2023-02-02T03:35:46.352Z,6.60
2023-02-02T03:36:46.652Z,6.60
2023-02-02T03:37:47.525Z,6.60
2023-02-02T03:38:48.463Z,6.60
2023-02-02T03:39:49.289Z,6.60
2023-02-02T03:40:49.415Z,6.60
2023-02-02T03:41:50.276Z,6.61
2023-02-02T03:42:51.156Z,6.61
2023-02-02T03:43:51.739Z,6.61
2023-02-02T03:44:52.632Z,6.61
2023-02-02T03:45:52.658Z,6.61
2023-02-02T03:46:53.112Z,6.61
2023-02-02T03:47:53.669Z,6.61
2023-02-02T03:48:54.398Z,6.61
2023-02-02T03:49:54.433Z,6.61
2023-02-02T03:50:54.542Z,6.61
2023-02-02T03:51:54.542Z,6.61
2023-02-02T03:52:55.154Z,6.61
2023-02-02T03:53:56.102Z,6.61
2023-02-02T03:54:56.167Z,6.61
2023-02-02T03:55:56.335Z,6.61
2023-02-02T03:56:56.542Z,6.61
2023-02-02T03:57:57.422Z,6.61
2023-02-02T03:58:58.273Z,6.61
2023-02-02T03:59:58.386Z,6.61
2023-02-02T04:00:58.597Z,6.62
2023-02-02T04:01:58.691Z,6.62
2023-02-02T04:02:10.811Z,6.64
2023-02-02T04:03:11.576Z,6.64
2023-02-02T04:04:12.514Z,6.64
2023-02-02T04:05:12.540Z,6.63
2023-02-02T04:06:13.246Z,6.63
2023-02-02T04:07:14.190Z,6.64
2023-02-02T04:08:15.031Z,6.64
2023-02-02T04:09:16.001Z,6.64
2023-02-02T04:10:22.857Z,6.64
2023-02-02T04:11:17.180Z,6.64
2023-02-02T04:12:17.970Z,6.65
2023-02-02T04:13:18.666Z,6.65
2023-02-02T04:14:18.732Z,6.65
2023-02-02T04:15:19.285Z,6.65
2023-02-02T04:16:20.235Z,6.65
2023-02-02T04:17:20.724Z,6.65
2023-02-02T04:18:21.592Z,6.65
2023-02-02T04:19:21.724Z,6.65
2023-02-02T04:20:21.738Z,6.65
2023-02-02T04:21:22.677Z,6.65
2023-02-02T04:22:23.333Z,6.65
2023-02-02T04:23:24.206Z,6.65
2023-02-02T04:24:25.225Z,6.65
2023-02-02T04:25:26.421Z,6.65
2023-02-02T04:26:27.059Z,6.65
2023-02-02T04:27:27.064Z,6.65
2023-02-02T04:28:27.915Z,6.65
2023-02-02T04:29:28.440Z,6.65
2023-02-02T04:30:29.250Z,6.65
2023-02-02T04:31:30.203Z,6.65
2023-02-02T04:32:30.868Z,6.65
2023-02-02T04:33:31.774Z,6.65
2023-02-02T04:34:32.727Z,6.65
2023-02-02T04:35:33.635Z,6.65
2023-02-02T04:36:34.298Z,6.65
2023-02-02T04:37:35.308Z,6.65
2023-02-02T04:37:43.964Z,6.67
2023-02-02T04:38:45.783Z,6.67
2023-02-02T04:39:45.615Z,6.67
2023-02-02T04:40:46.389Z,6.67
2023-02-02T04:41:47.210Z,6.67
2023-02-02T04:42:47.345Z,6.67
2023-02-02T04:43:47.624Z,6.67
2023-02-02T04:44:47.605Z,6.67
2023-02-02T04:45:48.467Z,6.67
2023-02-02T04:46:49.220Z,6.67
2023-02-02T04:47:49.981Z,6.67
2023-02-02T04:48:50.401Z,6.66
2023-02-02T04:49:51.104Z,6.66
2023-02-02T04:50:51.802Z,6.66
2023-02-02T04:51:52.496Z,6.65
2023-02-02T04:52:52.609Z,6.65
2023-02-02T04:53:53.094Z,6.65
2023-02-02T04:54:53.085Z,6.65
2023-02-02T04:55:53.459Z,6.64
2023-02-02T04:56:54.239Z,6.64
2023-02-02T04:57:55.079Z,6.64
2023-02-02T04:58:55.790Z,6.64
2023-02-02T04:59:55.914Z,6.64
2023-02-02T05:00:56.533Z,6.64
2023-02-02T05:01:57.327Z,6.64
2023-02-02T05:02:57.822Z,6.64
2023-02-02T05:03:57.846Z,6.64
2023-02-02T05:04:58.423Z,6.64
2023-02-02T05:05:59.154Z,6.65
2023-02-02T05:06:59.304Z,6.65
2023-02-02T05:08:00.065Z,6.65
2023-02-02T05:09:00.950Z,6.65
2023-02-02T05:10:01.861Z,6.65
2023-02-02T05:11:02.225Z,6.66
2023-02-02T05:12:02.439Z,6.66
2023-02-02T05:12:11.103Z,6.77
2023-02-02T05:13:11.827Z,6.77
2023-02-02T05:14:12.686Z,6.77
2023-02-02T05:15:13.313Z,6.77
2023-02-02T05:16:14.335Z,6.77
2023-02-02T05:17:15.010Z,6.77
2023-02-02T05:18:15.915Z,6.77
2023-02-02T05:19:16.849Z,6.77
2023-02-02T05:20:16.819Z,6.77
2023-02-02T05:21:18.678Z,6.77
2023-02-02T05:22:18.634Z,6.77
2023-02-02T05:23:19.494Z,6.77
2023-02-02T05:24:19.529Z,6.77
2023-02-02T05:25:20.164Z,6.77
2023-02-02T05:26:21.024Z,6.77
2023-02-02T05:27:21.828Z,6.77
2023-02-02T05:28:21.792Z,6.77
2023-02-02T05:29:22.707Z,6.77
2023-02-02T05:30:23.426Z,6.77
2023-02-02T05:31:24.406Z,6.77
2023-02-02T05:32:24.412Z,6.77
2023-02-02T05:33:25.157Z,6.77
2023-02-02T05:34:25.973Z,6.77
2023-02-02T05:35:27.151Z,6.77
2023-02-02T05:36:27.223Z,6.77
2023-02-02T05:37:28.195Z,6.77
2023-02-02T05:38:29.169Z,6.77
2023-02-02T05:39:29.805Z,6.77
2023-02-02T05:40:30.731Z,6.77
2023-02-02T05:41:31.675Z,6.77
2023-02-02T05:42:31.879Z,6.77
2023-02-02T05:43:32.834Z,6.77
2023-02-02T05:44:33.023Z,6.77
2023-02-02T05:45:33.484Z,6.77
2023-02-02T05:45:42.086Z,6.76
2023-02-02T05:46:42.441Z,6.76
2023-02-02T05:47:42.498Z,6.76
2023-02-02T05:48:43.069Z,6.76
2023-02-02T05:49:43.929Z,6.76
2023-02-02T05:50:44.319Z,6.76
2023-02-02T05:51:44.887Z,6.76
2023-02-02T05:52:45.800Z,6.76
2023-02-02T05:53:45.890Z,6.76
2023-02-02T05:54:46.094Z,6.76
2023-02-02T05:55:47.525Z,6.76
2023-02-02T05:56:47.379Z,6.76
2023-02-02T05:57:48.305Z,6.76
2023-02-02T05:58:48.386Z,6.76
2023-02-02T05:59:49.136Z,6.76
2023-02-02T06:00:50.014Z,6.76
2023-02-02T06:01:50.091Z,6.76
2023-02-02T06:02:50.257Z,6.76
2023-02-02T06:03:50.684Z,6.76
2023-02-02T06:04:50.655Z,6.77
2023-02-02T06:05:51.509Z,6.77
2023-02-02T06:06:52.311Z,6.77
2023-02-02T06:07:52.715Z,6.78
2023-02-02T06:08:53.512Z,6.78
2023-02-02T06:09:54.223Z,6.79
2023-02-02T06:10:54.912Z,6.79
2023-02-02T06:11:55.697Z,6.79
2023-02-02T06:12:56.234Z,6.80
2023-02-02T06:13:56.660Z,6.80
2023-02-02T06:14:56.895Z,6.80
2023-02-02T06:15:57.733Z,6.80
2023-02-02T06:16:57.748Z,6.81
2023-02-02T06:17:57.874Z,6.81
2023-02-02T06:18:58.678Z,6.82
2023-02-02T06:19:58.815Z,6.82
2023-02-02T06:20:07.492Z,6.89
2023-02-02T06:21:08.385Z,6.89
2023-02-02T06:22:09.310Z,6.89
2023-02-02T06:23:10.073Z,6.89
2023-02-02T06:24:10.948Z,6.89
2023-02-02T06:25:11.213Z,6.90
2023-02-02T06:26:11.210Z,6.90
2023-02-02T06:27:11.337Z,6.91
2023-02-02T06:28:12.184Z,6.91
2023-02-02T06:29:13.178Z,6.92
2023-02-02T06:30:14.152Z,6.92
2023-02-02T06:31:15.247Z,6.93
2023-02-02T06:32:15.520Z,6.93
2023-02-02T06:33:16.077Z,6.93
2023-02-02T06:34:16.193Z,6.93
2023-02-02T06:35:17.140Z,6.93
2023-02-02T06:36:17.523Z,6.93
2023-02-02T06:37:17.526Z,6.93
2023-02-02T06:38:17.565Z,6.94
2023-02-02T06:39:17.729Z,6.94
2023-02-02T06:40:17.844Z,6.94
2023-02-02T06:41:18.730Z,6.95
2023-02-02T06:42:21.764Z,6.95
2023-02-02T06:43:19.584Z,6.94
2023-02-02T06:44:20.017Z,6.94
2023-02-02T06:45:20.480Z,6.93
2023-02-02T06:46:20.633Z,6.93
2023-02-02T06:47:20.652Z,6.92
2023-02-02T06:48:21.020Z,6.92
2023-02-02T06:49:21.898Z,6.92
2023-02-02T06:50:22.326Z,6.92
2023-02-02T06:51:23.329Z,6.91
2023-02-02T06:52:23.443Z,6.91
2023-02-02T06:53:24.362Z,6.91
2023-02-02T06:53:33.049Z,6.88
2023-02-02T06:54:33.880Z,6.88
2023-02-02T06:55:34.352Z,6.88
2023-02-02T06:56:35.259Z,6.87
2023-02-02T06:57:36.272Z,6.87
2023-02-02T06:58:36.793Z,6.86
2023-02-02T06:59:36.782Z,6.86
2023-02-02T07:00:36.828Z,6.85
2023-02-02T07:01:37.125Z,6.85
2023-02-02T07:02:37.559Z,6.84
2023-02-02T07:03:37.503Z,6.83
2023-02-02T07:04:38.355Z,6.82
2023-02-02T07:05:38.618Z,6.82
2023-02-02T07:06:38.833Z,6.81
2023-02-02T07:07:39.849Z,6.80
2023-02-02T07:08:40.527Z,6.79
2023-02-02T07:09:40.894Z,6.78
2023-02-02T07:11:13.894Z,6.77
2023-02-02T07:11:45.428Z,6.76
2023-02-02T07:12:41.498Z,6.75
2023-02-02T07:13:41.611Z,6.74
2023-02-02T07:14:41.683Z,6.73
2023-02-02T07:15:42.003Z,6.73
2023-02-02T07:16:42.033Z,6.72
2023-02-02T07:17:42.125Z,6.71
2023-02-02T07:18:42.548Z,6.70
2023-02-02T07:19:43.054Z,6.70
2023-02-02T07:20:43.503Z,6.69
2023-02-02T07:21:44.403Z,6.68
2023-02-02T07:22:44.488Z,6.68
2023-02-02T07:23:44.684Z,6.67
2023-02-02T07:24:44.814Z,6.66
2023-02-02T07:24:54.161Z,6.57
2023-02-02T07:25:54.597Z,6.56
2023-02-02T07:26:55.635Z,6.56
2023-02-02T07:27:55.911Z,6.56
2023-02-02T07:28:56.034Z,6.56
2023-02-02T07:29:56.329Z,6.56
2023-02-02T07:30:56.557Z,6.56
2023-02-02T07:31:57.071Z,6.56
2023-02-02T07:32:57.356Z,6.56
2023-02-02T07:33:58.258Z,6.56
2023-02-02T07:34:58.386Z,6.57
2023-02-02T07:35:58.547Z,6.57
2023-02-02T07:36:58.567Z,6.57
2023-02-02T07:37:58.995Z,6.57
2023-02-02T07:38:59.045Z,6.58
2023-02-02T07:39:59.394Z,6.58
2023-02-02T07:41:00.258Z,6.58
2023-02-02T07:42:00.357Z,6.59
2023-02-02T07:43:00.728Z,6.59
2023-02-02T07:44:00.735Z,6.59
2023-02-02T07:45:24.323Z,6.59
2023-02-02T07:46:01.996Z,6.60
2023-02-02T07:47:01.976Z,6.60
2023-02-02T07:48:02.307Z,6.61
2023-02-02T07:49:02.283Z,6.62
2023-02-02T07:50:02.347Z,6.63
2023-02-02T07:51:02.927Z,6.63
2023-02-02T07:52:03.876Z,6.64
2023-02-02T07:53:04.715Z,6.64
2023-02-02T07:54:05.608Z,6.65
2023-02-02T07:55:14.526Z,6.66
2023-02-02T07:56:06.001Z,6.66
2023-02-02T07:56:14.655Z,6.74
2023-02-02T07:57:14.976Z,6.74
2023-02-02T07:58:16.160Z,6.74
2023-02-02T07:59:15.337Z,6.74
2023-02-02T08:00:15.576Z,6.74
2023-02-02T08:01:15.710Z,6.74
2023-02-02T08:02:16.413Z,6.74
2023-02-02T08:03:18.165Z,6.74
2023-02-02T08:04:17.341Z,6.75
2023-02-02T08:05:18.183Z,6.75
2023-02-02T08:06:18.502Z,6.76
2023-02-02T08:07:18.500Z,6.76
2023-02-02T08:08:19.332Z,6.76
2023-02-02T08:09:19.532Z,6.76
2023-02-02T08:10:20.043Z,6.77
2023-02-02T08:11:20.888Z,6.77
2023-02-02T08:12:23.596Z,6.78
2023-02-02T08:13:22.437Z,6.79
2023-02-02T08:14:22.607Z,6.79
2023-02-02T08:15:23.066Z,6.80
2023-02-02T08:16:23.091Z,6.81
2023-02-02T08:17:23.235Z,6.82
2023-02-02T08:18:24.240Z,6.83
2023-02-02T08:19:24.368Z,6.84
2023-02-02T08:20:24.663Z,6.85
2023-02-02T08:21:24.712Z,6.87
2023-02-02T08:22:24.959Z,6.88
2023-02-02T08:23:25.938Z,6.90
2023-02-02T08:24:25.985Z,6.91
2023-02-02T08:25:27.007Z,6.93
2023-02-02T08:26:27.536Z,6.95
2023-02-02T08:27:28.288Z,6.96
2023-02-02T08:27:38.130Z,7.23
2023-02-02T08:28:37.091Z,7.23
2023-02-02T08:29:38.301Z,7.23
2023-02-02T08:30:37.420Z,7.23
2023-02-02T08:31:37.549Z,7.23
2023-02-02T08:32:37.908Z,7.23
2023-02-02T08:33:39.640Z,7.23
2023-02-02T08:34:39.055Z,7.23
2023-02-02T08:35:39.389Z,7.23
2023-02-02T08:36:40.250Z,7.23
2023-02-02T08:37:41.083Z,7.24
2023-02-02T08:38:42.026Z,7.24
2023-02-02T08:39:42.190Z,7.25
2023-02-02T08:40:43.131Z,7.25
2023-02-02T08:41:43.996Z,7.26
2023-02-02T08:42:44.866Z,7.26
2023-02-02T08:43:44.966Z,7.27
2023-02-02T08:46:03.094Z,7.28
2023-02-02T08:46:12.535Z,7.28
2023-02-02T08:46:47.283Z,7.29
2023-02-02T08:47:50.408Z,7.31
2023-02-02T08:48:48.906Z,7.32
2023-02-02T08:49:49.114Z,7.33
2023-02-02T08:50:49.132Z,7.34
2023-02-02T08:51:49.521Z,7.35
2023-02-02T08:52:49.624Z,7.36
2023-02-02T08:53:49.949Z,7.38
2023-02-02T08:54:50.123Z,7.39
2023-02-02T08:55:50.959Z,7.40
2023-02-02T08:56:51.916Z,7.41
2023-02-02T08:57:52.910Z,7.42
2023-02-02T08:58:53.500Z,7.43
2023-02-02T08:59:03.141Z,7.60
2023-02-02T09:00:03.450Z,7.60
2023-02-02T09:01:03.987Z,7.60
2023-02-02T09:02:04.726Z,7.60
2023-02-02T09:03:05.481Z,7.60
2023-02-02T09:04:06.405Z,7.60
2023-02-02T09:05:07.141Z,7.60
2023-02-02T09:06:09.121Z,7.59
2023-02-02T09:07:09.021Z,7.59
2023-02-02T09:08:09.952Z,7.59
2023-02-02T09:09:10.537Z,7.58
2023-02-02T09:10:11.395Z,7.58
2023-02-02T09:11:12.277Z,7.58
2023-02-02T09:12:13.198Z,7.58
2023-02-02T09:13:13.486Z,7.58
2023-02-02T09:14:13.545Z,7.58
2023-02-02T09:15:14.512Z,7.58
2023-02-02T09:16:15.507Z,7.58
2023-02-02T09:17:16.142Z,7.58
2023-02-02T09:18:16.246Z,7.57
2023-02-02T09:19:17.103Z,7.57
2023-02-02T09:20:18.582Z,7.56
2023-02-02T09:21:17.429Z,7.56
2023-02-02T09:22:18.326Z,7.55
2023-02-02T09:23:18.431Z,7.55
2023-02-02T09:24:18.614Z,7.54
2023-02-02T09:25:18.953Z,7.54
2023-02-02T09:26:19.940Z,7.54
2023-02-02T09:27:20.178Z,7.54
2023-02-02T09:28:21.072Z,7.54
2023-02-02T09:29:21.338Z,7.54
2023-02-02T09:30:21.763Z,7.54
2023-02-02T09:30:31.481Z,7.58
2023-02-02T09:31:32.397Z,7.58
2023-02-02T09:32:32.604Z,7.58
2023-02-02T09:33:33.088Z,7.57
2023-02-02T09:34:33.531Z,7.57
2023-02-02T09:35:34.395Z,7.57
2023-02-02T09:36:34.517Z,7.57
2023-02-02T09:37:35.115Z,7.56
2023-02-02T09:38:35.276Z,7.56
2023-02-02T09:39:35.792Z,7.56
2023-02-02T09:40:36.733Z,7.56
2023-02-02T09:41:36.756Z,7.56
2023-02-02T09:42:36.830Z,7.56
2023-02-02T09:43:37.389Z,7.57
2023-02-02T09:44:37.839Z,7.57
2023-02-02T09:45:38.883Z,7.58
2023-02-02T09:46:39.660Z,7.58
2023-02-02T09:47:40.285Z,7.59
2023-02-02T09:48:40.565Z,7.59
2023-02-02T09:49:41.043Z,7.60
2023-02-02T09:50:41.676Z,7.60
2023-02-02T09:51:42.017Z,7.61
2023-02-02T09:52:42.879Z,7.62
2023-02-02T09:53:54.697Z,7.63
2023-02-02T09:54:43.742Z,7.63
2023-02-02T09:55:44.743Z,7.64
2023-02-02T09:56:44.914Z,7.65
2023-02-02T09:57:45.044Z,7.66
2023-02-02T09:58:45.893Z,7.66
2023-02-02T09:59:46.035Z,7.67
2023-02-02T10:00:47.067Z,7.68
2023-02-02T10:01:47.466Z,7.69
2023-02-02T10:02:48.473Z,7.70
2023-02-02T10:03:00.665Z,7.87
2023-02-02T10:04:01.334Z,7.87
2023-02-02T10:05:03.172Z,7.87
2023-02-02T10:06:03.094Z,7.87
2023-02-02T10:07:03.544Z,7.87
2023-02-02T10:08:04.470Z,7.87
2023-02-02T10:09:04.531Z,7.88
2023-02-02T10:10:04.735Z,7.89
2023-02-02T10:11:04.743Z,7.89
2023-02-02T10:12:05.195Z,7.90
2023-02-02T10:13:05.521Z,7.91
2023-02-02T10:14:05.609Z,7.92
2023-02-02T10:15:06.545Z,7.92
2023-02-02T10:16:07.517Z,7.93
2023-02-02T10:17:08.272Z,7.94
2023-02-02T10:18:09.006Z,7.94
2023-02-02T10:19:09.108Z,7.95
2023-02-02T10:20:09.660Z,7.95
2023-02-02T10:21:09.686Z,7.96
2023-02-02T10:22:09.776Z,7.97
2023-02-02T10:23:10.545Z,7.97
2023-02-02T10:24:11.351Z,7.97
2023-02-02T10:25:11.705Z,7.97
2023-02-02T10:26:11.959Z,7.98
2023-02-02T10:27:12.553Z,7.98
2023-02-02T10:28:13.635Z,7.99
2023-02-02T10:29:12.961Z,7.99
2023-02-02T10:30:12.976Z,8.00
2023-02-02T10:31:14.002Z,8.00
2023-02-02T10:32:14.138Z,8.01
2023-02-02T10:33:14.378Z,8.01
2023-02-02T10:34:14.818Z,8.02
2023-02-02T10:35:15.243Z,8.02
2023-02-02T10:35:23.773Z,8.16
2023-02-02T10:36:24.532Z,8.16
2023-02-02T10:37:24.640Z,8.16
2023-02-02T10:38:25.404Z,8.15
2023-02-02T10:39:26.310Z,8.15
2023-02-02T10:40:27.227Z,8.14
2023-02-02T10:41:27.768Z,8.14
2023-02-02T10:42:28.267Z,8.14
2023-02-02T10:43:28.991Z,8.14
2023-02-02T10:44:29.740Z,8.14
2023-02-02T10:45:29.945Z,8.14
2023-02-02T10:46:30.559Z,8.14
2023-02-02T10:47:31.186Z,8.14
2023-02-02T10:48:31.525Z,8.14
2023-02-02T10:49:32.477Z,8.15
2023-02-02T10:50:33.381Z,8.15
2023-02-02T10:51:33.565Z,8.16
2023-02-02T10:52:34.355Z,8.16
2023-02-02T10:55:13.806Z,8.33
2023-02-02T10:56:13.841Z,8.32
2023-02-02T10:57:14.613Z,8.31
2023-02-02T10:58:14.870Z,8.31
2023-02-02T10:59:15.806Z,8.31
2023-02-02T11:00:15.875Z,8.32
2023-02-02T11:01:16.224Z,8.32
2023-02-02T11:02:21.082Z,8.32
2023-02-02T11:03:17.596Z,8.33
2023-02-02T11:04:17.617Z,8.32
2023-02-02T11:05:17.787Z,8.33
2023-02-02T11:06:18.127Z,8.32
2023-02-02T11:07:18.948Z,8.32
2023-02-02T11:08:20.626Z,8.32
2023-02-02T11:09:19.851Z,8.32
2023-02-02T11:10:20.408Z,8.32
2023-02-02T11:11:21.228Z,8.32
2023-02-02T11:12:21.557Z,8.33
2023-02-02T11:13:22.513Z,8.33
2023-02-02T11:14:22.862Z,8.34
2023-02-02T11:15:23.763Z,8.35
2023-02-02T11:16:25.704Z,8.35
2023-02-02T11:17:24.619Z,8.36
2023-02-02T11:18:25.556Z,8.38
2023-02-02T11:19:26.248Z,8.38
2023-02-02T11:20:27.066Z,8.39
2023-02-02T11:21:27.454Z,8.40
2023-02-02T11:22:28.314Z,8.41
2023-02-02T11:23:28.987Z,8.43
2023-02-02T11:24:29.259Z,8.44
2023-02-02T11:25:30.139Z,8.45
2023-02-02T11:26:30.455Z,8.46
2023-02-02T11:26:39.539Z,8.66
2023-02-02T11:27:39.666Z,8.66
2023-02-02T11:28:40.535Z,8.66
2023-02-02T11:29:41.522Z,8.65
2023-02-02T11:30:41.997Z,8.65
2023-02-02T11:31:42.026Z,8.65
2023-02-02T11:32:43.046Z,8.65
2023-02-02T11:33:43.073Z,8.65
2023-02-02T11:34:43.430Z,8.65
2023-02-02T11:35:44.244Z,8.65
2023-02-02T11:36:45.189Z,8.65
2023-02-02T11:37:45.435Z,8.65
2023-02-02T11:38:46.610Z,8.66
2023-02-02T11:39:46.057Z,8.65
2023-02-02T11:40:47.028Z,8.65
2023-02-02T11:41:47.736Z,8.65
2023-02-02T11:42:47.813Z,8.64
2023-02-02T11:43:48.568Z,8.63
2023-02-02T11:44:48.657Z,8.63
2023-02-02T11:45:49.446Z,8.63
2023-02-02T11:46:49.605Z,8.62
2023-02-02T11:47:50.363Z,8.62
2023-02-02T11:48:51.450Z,8.62
2023-02-02T11:49:51.267Z,8.62
2023-02-02T11:50:52.486Z,8.62
2023-02-02T11:51:52.197Z,8.62
2023-02-02T11:52:52.895Z,8.61
2023-02-02T11:53:53.188Z,8.62
2023-02-02T11:54:54.032Z,8.61
2023-02-02T11:55:54.650Z,8.61
2023-02-02T11:56:55.182Z,8.61
2023-02-02T11:57:55.980Z,8.61
2023-02-02T11:58:55.986Z,8.62
2023-02-02T11:59:08.190Z,8.67
2023-02-02T12:00:07.100Z,8.67
2023-02-02T12:01:07.851Z,8.67
2023-02-02T12:02:08.739Z,8.67
2023-02-02T12:03:09.955Z,8.67
2023-02-02T12:04:10.164Z,8.68
2023-02-02T12:05:09.913Z,8.68
2023-02-02T12:06:09.944Z,8.67
2023-02-02T12:07:09.943Z,8.67
2023-02-02T12:08:10.223Z,8.67
2023-02-02T12:09:10.296Z,8.67
2023-02-02T12:10:10.301Z,8.67
2023-02-02T12:11:10.544Z,8.68
2023-02-02T12:12:11.438Z,8.68
2023-02-02T12:13:12.483Z,8.68
2023-02-02T12:14:12.951Z,8.68
2023-02-02T12:15:13.764Z,8.68
2023-02-02T12:16:14.729Z,8.68
2023-02-02T12:17:14.703Z,8.68
2023-02-02T12:18:14.967Z,8.68
2023-02-02T12:19:15.341Z,8.68
2023-02-02T12:20:16.868Z,8.68
2023-02-02T12:21:16.730Z,8.68
2023-02-02T12:22:17.284Z,8.68
2023-02-02T12:23:17.614Z,8.68
2023-02-02T12:24:18.283Z,8.68
2023-02-02T12:25:18.303Z,8.68
2023-02-02T12:26:18.676Z,8.69
2023-02-02T12:27:18.707Z,8.69
2023-02-02T12:27:28.159Z,8.75
2023-02-02T12:28:28.183Z,8.75
2023-02-02T12:29:28.425Z,8.74
2023-02-02T12:30:28.760Z,8.75
2023-02-02T12:31:28.824Z,8.75
2023-02-02T12:32:28.879Z,8.75
2023-02-02T12:33:28.960Z,8.75
2023-02-02T12:34:29.736Z,8.76
2023-02-02T12:35:30.155Z,8.77
2023-02-02T12:36:30.284Z,8.77
2023-02-02T12:37:30.538Z,8.78
2023-02-02T12:38:31.504Z,8.78
2023-02-02T12:39:32.440Z,8.78
2023-02-02T12:40:34.164Z,8.79
2023-02-02T12:41:34.097Z,8.79
2023-02-02T12:42:34.219Z,8.79
2023-02-02T12:43:34.965Z,8.79
2023-02-02T12:44:35.817Z,8.80
2023-02-02T12:45:36.317Z,8.80
2023-02-02T12:46:36.505Z,8.80
2023-02-02T12:47:37.498Z,8.80
2023-02-02T12:48:37.527Z,8.80
2023-02-02T12:49:37.773Z,8.81
2023-02-02T12:50:37.888Z,8.81
2023-02-02T12:51:37.873Z,8.81
2023-02-02T12:52:38.791Z,8.82
2023-02-02T12:53:38.860Z,8.82
2023-02-02T12:54:44.288Z,8.82
2023-02-02T12:55:39.615Z,8.83
2023-02-02T12:56:40.128Z,8.83
2023-02-02T12:57:40.193Z,8.84
2023-02-02T12:58:40.685Z,8.85
2023-02-02T12:58:49.403Z,8.95
2023-02-02T12:59:49.446Z,8.95
2023-02-02T13:00:49.640Z,8.95
2023-02-02T13:01:50.636Z,8.96
2023-02-02T13:02:51.159Z,8.97
2023-02-02T13:03:51.138Z,8.97
2023-02-02T13:04:51.312Z,8.98
2023-02-02T13:05:51.449Z,8.99
2023-02-02T13:06:51.708Z,9.01
2023-02-02T13:07:52.624Z,9.02